sensor_id;sensor_type;location;lat;lon;timestamp;P1;durP1;ratioP1;P2;durP2;ratioP2
6997;SDS011;3539;47.982;12.238;2023-02-04T00:01:23;1.30;;;1.20;;
6997;SDS011;3539;47.982;12.238;2023-02-04T00:03:50;1.43;;;1.33;;
6997;SDS011;3539;47.982;12.238;2023-02-04T00:06:17;1.40;;;1.30;;
6997;SDS011;3539;47.982;12.238;2023-02-04T00:08:44;1.30;;;1.20;;
6997;SDS011;3539;47.982;12.238;2023-02-04T00:11:11;1.13;;;1.13;;
6997;SDS011;3539;47.982;12.238;2023-02-04T00:13:38;1.27;;;1.20;;
6997;SDS011;3539;47.982;12.238;2023-02-04T00:16:06;1.30;;;1.20;;
6997;SDS011;3539;47.982;12.238;2023-02-04T00:18:33;1.30;;;1.20;;
6997;SDS011;3539;47.982;12.238;2023-02-04T00:21:00;1.30;;;1.20;;
6997;SDS011;3539;47.982;12.238;2023-02-04T00:23:26;1.40;;;1.30;;
6997;SDS011;3539;47.982;12.238;2023-02-04T00:25:53;1.40;;;1.30;;
6997;SDS011;3539;47.982;12.238;2023-02-04T00:28:20;2.30;;;1.33;;
6997;SDS011;3539;47.982;12.238;2023-02-04T00:30:47;1.50;;;1.40;;
6997;SDS011;3539;47.982;12.238;2023-02-04T00:33:16;1.40;;;1.30;;
6997;SDS011;3539;47.982;12.238;2023-02-04T00:35:44;1.33;;;1.23;;
6997;SDS011;3539;47.982;12.238;2023-02-04T00:38:10;2.30;;;1.33;;
6997;SDS011;3539;47.982;12.238;2023-02-04T00:40:37;1.40;;;1.30;;
6997;SDS011;3539;47.982;12.238;2023-02-04T00:43:04;2.10;;;1.20;;
6997;SDS011;3539;47.982;12.238;2023-02-04T00:45:31;1.47;;;1.30;;
6997;SDS011;3539;47.982;12.238;2023-02-04T00:47:58;1.20;;;1.10;;
6997;SDS011;3539;47.982;12.238;2023-02-04T00:50:26;1.60;;;1.20;;
6997;SDS011;3539;47.982;12.238;2023-02-04T00:52:53;1.67;;;1.27;;
6997;SDS011;3539;47.982;12.238;2023-02-04T00:55:20;1.20;;;1.10;;
6997;SDS011;3539;47.982;12.238;2023-02-04T00:57:46;1.50;;;1.40;;
6997;SDS011;3539;47.982;12.238;2023-02-04T01:00:14;2.17;;;1.40;;
6997;SDS011;3539;47.982;12.238;2023-02-04T01:02:41;1.40;;;1.30;;
6997;SDS011;3539;47.982;12.238;2023-02-04T01:05:08;1.30;;;1.20;;
6997;SDS011;3539;47.982;12.238;2023-02-04T01:07:36;1.50;;;1.40;;
6997;SDS011;3539;47.982;12.238;2023-02-04T01:10:04;1.60;;;1.50;;
6997;SDS011;3539;47.982;12.238;2023-02-04T01:12:31;1.40;;;1.30;;
6997;SDS011;3539;47.982;12.238;2023-02-04T01:14:58;1.50;;;1.40;;
6997;SDS011;3539;47.982;12.238;2023-02-04T01:17:24;2.37;;;1.50;;
6997;SDS011;3539;47.982;12.238;2023-02-04T01:19:51;1.70;;;1.47;;
6997;SDS011;3539;47.982;12.238;2023-02-04T01:22:18;1.37;;;1.27;;
6997;SDS011;3539;47.982;12.238;2023-02-04T01:24:47;1.40;;;1.30;;
6997;SDS011;3539;47.982;12.238;2023-02-04T01:27:14;1.50;;;1.30;;
6997;SDS011;3539;47.982;12.238;2023-02-04T01:29:41;1.17;;;1.10;;
6997;SDS011;3539;47.982;12.238;2023-02-04T01:32:08;1.43;;;1.17;;
6997;SDS011;3539;47.982;12.238;2023-02-04T01:34:35;1.23;;;1.13;;
6997;SDS011;3539;47.982;12.238;2023-02-04T01:37:02;1.27;;;1.17;;
6997;SDS011;3539;47.982;12.238;2023-02-04T01:39:28;1.37;;;1.20;;
6997;SDS011;3539;47.982;12.238;2023-02-04T01:41:56;1.30;;;1.20;;
6997;SDS011;3539;47.982;12.238;2023-02-04T01:44:25;1.20;;;1.10;;
6997;SDS011;3539;47.982;12.238;2023-02-04T01:46:51;1.30;;;1.20;;
6997;SDS011;3539;47.982;12.238;2023-02-04T01:49:18;1.30;;;1.20;;
6997;SDS011;3539;47.982;12.238;2023-02-04T01:51:45;1.13;;;1.07;;
6997;SDS011;3539;47.982;12.238;2023-02-04T01:54:12;1.40;;;1.30;;
6997;SDS011;3539;47.982;12.238;2023-02-04T01:56:42;1.10;;;1.00;;
6997;SDS011;3539;47.982;12.238;2023-02-04T01:59:13;1.23;;;1.10;;
6997;SDS011;3539;47.982;12.238;2023-02-04T02:01:42;1.27;;;1.17;;
6997;SDS011;3539;47.982;12.238;2023-02-04T02:04:11;1.03;;;1.00;;
6997;SDS011;3539;47.982;12.238;2023-02-04T02:06:42;1.00;;;1.00;;
6997;SDS011;3539;47.982;12.238;2023-02-04T02:09:10;1.83;;;1.00;;
6997;SDS011;3539;47.982;12.238;2023-02-04T02:11:37;1.27;;;1.13;;
6997;SDS011;3539;47.982;12.238;2023-02-04T02:14:04;1.20;;;1.10;;
6997;SDS011;3539;47.982;12.238;2023-02-04T02:16:32;1.20;;;1.10;;
6997;SDS011;3539;47.982;12.238;2023-02-04T02:18:59;1.20;;;1.10;;
6997;SDS011;3539;47.982;12.238;2023-02-04T02:21:29;1.17;;;1.00;;
6997;SDS011;3539;47.982;12.238;2023-02-04T02:23:59;1.10;;;1.00;;
6997;SDS011;3539;47.982;12.238;2023-02-04T02:26:26;1.03;;;1.00;;
6997;SDS011;3539;47.982;12.238;2023-02-04T02:28:53;2.40;;;1.00;;
6997;SDS011;3539;47.982;12.238;2023-02-04T02:31:20;1.73;;;1.00;;
6997;SDS011;3539;47.982;12.238;2023-02-04T02:33:47;1.17;;;1.07;;
6997;SDS011;3539;47.982;12.238;2023-02-04T02:36:14;1.30;;;1.20;;
6997;SDS011;3539;47.982;12.238;2023-02-04T02:38:41;1.00;;;0.97;;
6997;SDS011;3539;47.982;12.238;2023-02-04T02:41:10;2.50;;;1.20;;
6997;SDS011;3539;47.982;12.238;2023-02-04T02:43:36;2.53;;;1.60;;
6997;SDS011;3539;47.982;12.238;2023-02-04T02:46:03;2.67;;;1.80;;
6997;SDS011;3539;47.982;12.238;2023-02-04T02:48:31;5.37;;;2.13;;
6997;SDS011;3539;47.982;12.238;2023-02-04T02:51:03;5.03;;;2.17;;
6997;SDS011;3539;47.982;12.238;2023-02-04T02:53:30;4.57;;;2.67;;
6997;SDS011;3539;47.982;12.238;2023-02-04T02:55:56;8.63;;;2.93;;
6997;SDS011;3539;47.982;12.238;2023-02-04T02:58:28;7.33;;;2.60;;
6997;SDS011;3539;47.982;12.238;2023-02-04T03:00:57;4.87;;;2.80;;
6997;SDS011;3539;47.982;12.238;2023-02-04T03:03:25;5.93;;;2.70;;
6997;SDS011;3539;47.982;12.238;2023-02-04T03:05:54;9.17;;;3.10;;
6997;SDS011;3539;47.982;12.238;2023-02-04T03:08:24;5.07;;;2.50;;
6997;SDS011;3539;47.982;12.238;2023-02-04T03:10:56;8.43;;;2.87;;
6997;SDS011;3539;47.982;12.238;2023-02-04T03:13:23;4.80;;;2.63;;
6997;SDS011;3539;47.982;12.238;2023-02-04T03:15:52;4.70;;;2.73;;
6997;SDS011;3539;47.982;12.238;2023-02-04T03:18:22;6.23;;;2.80;;
6997;SDS011;3539;47.982;12.238;2023-02-04T03:20:52;8.27;;;3.13;;
6997;SDS011;3539;47.982;12.238;2023-02-04T03:23:23;5.23;;;2.80;;
6997;SDS011;3539;47.982;12.238;2023-02-04T03:25:51;8.47;;;2.77;;
6997;SDS011;3539;47.982;12.238;2023-02-04T03:28:18;8.27;;;2.97;;
6997;SDS011;3539;47.982;12.238;2023-02-04T03:30:48;7.53;;;2.70;;
6997;SDS011;3539;47.982;12.238;2023-02-04T03:33:19;7.37;;;2.90;;
6997;SDS011;3539;47.982;12.238;2023-02-04T03:35:46;10.30;;;3.20;;
6997;SDS011;3539;47.982;12.238;2023-02-04T03:38:12;10.07;;;2.90;;
6997;SDS011;3539;47.982;12.238;2023-02-04T03:40:39;10.57;;;2.93;;
6997;SDS011;3539;47.982;12.238;2023-02-04T03:43:06;6.23;;;2.80;;
6997;SDS011;3539;47.982;12.238;2023-02-04T03:45:33;7.57;;;2.70;;
6997;SDS011;3539;47.982;12.238;2023-02-04T03:48:00;8.03;;;2.13;;
6997;SDS011;3539;47.982;12.238;2023-02-04T03:50:28;12.93;;;2.90;;
6997;SDS011;3539;47.982;12.238;2023-02-04T03:52:58;8.13;;;2.63;;
6997;SDS011;3539;47.982;12.238;2023-02-04T03:55:25;3.97;;;2.00;;
6997;SDS011;3539;47.982;12.238;2023-02-04T03:57:52;6.60;;;2.50;;
6997;SDS011;3539;47.982;12.238;2023-02-04T04:00:19;7.20;;;2.50;;
6997;SDS011;3539;47.982;12.238;2023-02-04T04:02:46;11.53;;;2.30;;
6997;SDS011;3539;47.982;12.238;2023-02-04T04:05:16;9.03;;;2.50;;
6997;SDS011;3539;47.982;12.238;2023-02-04T04:07:44;10.40;;;2.50;;
6997;SDS011;3539;47.982;12.238;2023-02-04T04:10:11;5.63;;;2.50;;
6997;SDS011;3539;47.982;12.238;2023-02-04T04:12:38;6.13;;;2.60;;
6997;SDS011;3539;47.982;12.238;2023-02-04T04:15:08;6.30;;;1.97;;
6997;SDS011;3539;47.982;12.238;2023-02-04T04:17:36;8.87;;;2.13;;
6997;SDS011;3539;47.982;12.238;2023-02-04T04:20:05;6.30;;;2.40;;
6997;SDS011;3539;47.982;12.238;2023-02-04T04:22:38;6.87;;;2.30;;
6997;SDS011;3539;47.982;12.238;2023-02-04T04:25:07;8.47;;;2.53;;
6997;SDS011;3539;47.982;12.238;2023-02-04T04:27:34;8.20;;;2.13;;
6997;SDS011;3539;47.982;12.238;2023-02-04T04:30:03;6.50;;;2.33;;
6997;SDS011;3539;47.982;12.238;2023-02-04T04:32:30;8.27;;;2.30;;
6997;SDS011;3539;47.982;12.238;2023-02-04T04:35:06;7.87;;;2.63;;
6997;SDS011;3539;47.982;12.238;2023-02-04T04:37:35;4.53;;;1.90;;
6997;SDS011;3539;47.982;12.238;2023-02-04T04:40:02;4.93;;;2.20;;
6997;SDS011;3539;47.982;12.238;2023-02-04T04:42:32;6.00;;;2.20;;
6997;SDS011;3539;47.982;12.238;2023-02-04T04:45:04;10.07;;;2.70;;
6997;SDS011;3539;47.982;12.238;2023-02-04T04:47:35;8.43;;;2.20;;
6997;SDS011;3539;47.982;12.238;2023-02-04T04:50:02;6.53;;;2.13;;
6997;SDS011;3539;47.982;12.238;2023-02-04T04:52:29;8.97;;;2.53;;
6997;SDS011;3539;47.982;12.238;2023-02-04T04:54:58;6.00;;;2.20;;
6997;SDS011;3539;47.982;12.238;2023-02-04T04:57:25;8.63;;;2.33;;
6997;SDS011;3539;47.982;12.238;2023-02-04T04:59:53;9.93;;;2.27;;
6997;SDS011;3539;47.982;12.238;2023-02-04T05:02:20;6.63;;;2.13;;
6997;SDS011;3539;47.982;12.238;2023-02-04T05:04:47;8.30;;;2.20;;
6997;SDS011;3539;47.982;12.238;2023-02-04T05:07:14;6.87;;;2.00;;
6997;SDS011;3539;47.982;12.238;2023-02-04T05:09:43;7.77;;;2.20;;
6997;SDS011;3539;47.982;12.238;2023-02-04T05:12:10;6.70;;;2.20;;
6997;SDS011;3539;47.982;12.238;2023-02-04T05:14:36;7.73;;;2.43;;
6997;SDS011;3539;47.982;12.238;2023-02-04T05:17:05;7.73;;;2.53;;
6997;SDS011;3539;47.982;12.238;2023-02-04T05:19:32;4.77;;;2.13;;
6997;SDS011;3539;47.982;12.238;2023-02-04T05:21:58;9.53;;;2.30;;
6997;SDS011;3539;47.982;12.238;2023-02-04T05:24:25;11.10;;;2.50;;
6997;SDS011;3539;47.982;12.238;2023-02-04T05:26:55;7.57;;;2.43;;
6997;SDS011;3539;47.982;12.238;2023-02-04T05:29:22;5.83;;;1.87;;
6997;SDS011;3539;47.982;12.238;2023-02-04T05:31:49;8.60;;;3.00;;
6997;SDS011;3539;47.982;12.238;2023-02-04T05:34:18;12.23;;;2.83;;
6997;SDS011;3539;47.982;12.238;2023-02-04T05:36:46;7.40;;;2.20;;
6997;SDS011;3539;47.982;12.238;2023-02-04T05:39:13;8.67;;;2.40;;
6997;SDS011;3539;47.982;12.238;2023-02-04T05:41:41;9.50;;;2.30;;
6997;SDS011;3539;47.982;12.238;2023-02-04T05:44:09;6.43;;;2.63;;
6997;SDS011;3539;47.982;12.238;2023-02-04T05:46:36;7.23;;;2.03;;
6997;SDS011;3539;47.982;12.238;2023-02-04T05:49:05;7.37;;;2.13;;
6997;SDS011;3539;47.982;12.238;2023-02-04T05:51:34;8.37;;;2.50;;
6997;SDS011;3539;47.982;12.238;2023-02-04T05:54:03;11.50;;;2.63;;
6997;SDS011;3539;47.982;12.238;2023-02-04T05:56:32;6.63;;;2.50;;
6997;SDS011;3539;47.982;12.238;2023-02-04T05:58:59;8.47;;;2.43;;
6997;SDS011;3539;47.982;12.238;2023-02-04T06:01:26;5.90;;;2.27;;
6997;SDS011;3539;47.982;12.238;2023-02-04T06:03:53;10.17;;;2.67;;
6997;SDS011;3539;47.982;12.238;2023-02-04T06:06:19;10.47;;;2.67;;
6997;SDS011;3539;47.982;12.238;2023-02-04T06:08:48;10.67;;;2.20;;
6997;SDS011;3539;47.982;12.238;2023-02-04T06:11:15;6.27;;;2.37;;
6997;SDS011;3539;47.982;12.238;2023-02-04T06:13:42;7.27;;;2.47;;
6997;SDS011;3539;47.982;12.238;2023-02-04T06:16:09;6.10;;;2.63;;
6997;SDS011;3539;47.982;12.238;2023-02-04T06:18:35;10.57;;;5.47;;
6997;SDS011;3539;47.982;12.238;2023-02-04T06:21:04;8.87;;;3.60;;
6997;SDS011;3539;47.982;12.238;2023-02-04T06:23:31;8.33;;;2.63;;
6997;SDS011;3539;47.982;12.238;2023-02-04T06:26:01;30.73;;;15.10;;
6997;SDS011;3539;47.982;12.238;2023-02-04T06:28:28;9.20;;;3.30;;
6997;SDS011;3539;47.982;12.238;2023-02-04T06:30:58;17.13;;;7.33;;
6997;SDS011;3539;47.982;12.238;2023-02-04T06:33:25;16.73;;;7.93;;
6997;SDS011;3539;47.982;12.238;2023-02-04T06:35:57;17.30;;;8.37;;
6997;SDS011;3539;47.982;12.238;2023-02-04T06:38:24;30.37;;;13.13;;
6997;SDS011;3539;47.982;12.238;2023-02-04T06:40:56;9.60;;;3.67;;
6997;SDS011;3539;47.982;12.238;2023-02-04T06:43:30;19.47;;;8.70;;
6997;SDS011;3539;47.982;12.238;2023-02-04T06:46:03;8.90;;;2.43;;
6997;SDS011;3539;47.982;12.238;2023-02-04T06:48:33;14.27;;;3.00;;
6997;SDS011;3539;47.982;12.238;2023-02-04T06:50:59;18.77;;;9.90;;
6997;SDS011;3539;47.982;12.238;2023-02-04T06:53:26;12.93;;;5.80;;
6997;SDS011;3539;47.982;12.238;2023-02-04T06:55:53;9.03;;;3.90;;
6997;SDS011;3539;47.982;12.238;2023-02-04T06:58:20;12.03;;;3.63;;
6997;SDS011;3539;47.982;12.238;2023-02-04T07:00:48;8.97;;;2.93;;
6997;SDS011;3539;47.982;12.238;2023-02-04T07:03:15;10.80;;;3.77;;
6997;SDS011;3539;47.982;12.238;2023-02-04T07:05:43;16.30;;;7.90;;
6997;SDS011;3539;47.982;12.238;2023-02-04T07:08:10;7.70;;;3.03;;
6997;SDS011;3539;47.982;12.238;2023-02-04T07:10:38;8.40;;;3.43;;
6997;SDS011;3539;47.982;12.238;2023-02-04T07:13:05;11.03;;;4.57;;
6997;SDS011;3539;47.982;12.238;2023-02-04T07:15:31;6.77;;;2.47;;
6997;SDS011;3539;47.982;12.238;2023-02-04T07:18:02;7.90;;;2.33;;
6997;SDS011;3539;47.982;12.238;2023-02-04T07:20:29;8.43;;;3.70;;
6997;SDS011;3539;47.982;12.238;2023-02-04T07:22:56;17.93;;;8.53;;
6997;SDS011;3539;47.982;12.238;2023-02-04T07:25:26;9.70;;;4.23;;
6997;SDS011;3539;47.982;12.238;2023-02-04T07:27:53;10.83;;;3.03;;
6997;SDS011;3539;47.982;12.238;2023-02-04T07:30:20;7.13;;;2.63;;
6997;SDS011;3539;47.982;12.238;2023-02-04T07:32:47;6.13;;;2.07;;
6997;SDS011;3539;47.982;12.238;2023-02-04T07:38:05;6.57;;;2.50;;
6997;SDS011;3539;47.982;12.238;2023-02-04T07:40:32;4.53;;;2.33;;
6997;SDS011;3539;47.982;12.238;2023-02-04T07:42:59;9.13;;;2.90;;
6997;SDS011;3539;47.982;12.238;2023-02-04T07:45:26;6.30;;;2.23;;
6997;SDS011;3539;47.982;12.238;2023-02-04T07:47:53;11.23;;;2.97;;
6997;SDS011;3539;47.982;12.238;2023-02-04T07:50:20;8.67;;;2.40;;
6997;SDS011;3539;47.982;12.238;2023-02-04T07:52:49;8.97;;;3.20;;
6997;SDS011;3539;47.982;12.238;2023-02-04T07:55:16;6.73;;;2.93;;
6997;SDS011;3539;47.982;12.238;2023-02-04T07:57:43;10.47;;;3.37;;
6997;SDS011;3539;47.982;12.238;2023-02-04T08:00:13;9.63;;;2.70;;
6997;SDS011;3539;47.982;12.238;2023-02-04T08:02:42;8.33;;;2.70;;
6997;SDS011;3539;47.982;12.238;2023-02-04T08:05:09;6.40;;;2.50;;
6997;SDS011;3539;47.982;12.238;2023-02-04T08:07:36;7.40;;;2.10;;
6997;SDS011;3539;47.982;12.238;2023-02-04T08:10:13;5.77;;;2.23;;
6997;SDS011;3539;47.982;12.238;2023-02-04T08:12:40;3.73;;;2.20;;
6997;SDS011;3539;47.982;12.238;2023-02-04T08:15:08;9.63;;;2.60;;
6997;SDS011;3539;47.982;12.238;2023-02-04T08:17:42;6.97;;;2.70;;
6997;SDS011;3539;47.982;12.238;2023-02-04T08:20:34;5.47;;;2.10;;
6997;SDS011;3539;47.982;12.238;2023-02-04T08:23:43;6.73;;;2.23;;
6997;SDS011;3539;47.982;12.238;2023-02-04T08:26:11;9.73;;;2.80;;
6997;SDS011;3539;47.982;12.238;2023-02-04T08:28:49;7.63;;;3.97;;
6997;SDS011;3539;47.982;12.238;2023-02-04T08:31:24;13.97;;;6.33;;
6997;SDS011;3539;47.982;12.238;2023-02-04T08:33:56;16.33;;;7.23;;
6997;SDS011;3539;47.982;12.238;2023-02-04T08:36:38;7.57;;;2.97;;
6997;SDS011;3539;47.982;12.238;2023-02-04T08:39:15;5.80;;;2.77;;
6997;SDS011;3539;47.982;12.238;2023-02-04T08:41:55;6.63;;;2.23;;
6997;SDS011;3539;47.982;12.238;2023-02-04T08:44:31;8.90;;;2.27;;
6997;SDS011;3539;47.982;12.238;2023-02-04T08:47:20;7.17;;;2.50;;
6997;SDS011;3539;47.982;12.238;2023-02-04T08:49:54;8.00;;;2.30;;
6997;SDS011;3539;47.982;12.238;2023-02-04T08:52:44;10.77;;;2.80;;
6997;SDS011;3539;47.982;12.238;2023-02-04T08:55:27;7.60;;;2.40;;
6997;SDS011;3539;47.982;12.238;2023-02-04T08:58:08;8.13;;;2.67;;
6997;SDS011;3539;47.982;12.238;2023-02-04T09:03:52;7.30;;;2.33;;
6997;SDS011;3539;47.982;12.238;2023-02-04T09:06:26;9.77;;;2.70;;
6997;SDS011;3539;47.982;12.238;2023-02-04T09:08:56;5.03;;;2.30;;
6997;SDS011;3539;47.982;12.238;2023-02-04T09:11:25;8.50;;;2.30;;
6997;SDS011;3539;47.982;12.238;2023-02-04T09:14:09;8.60;;;2.30;;
6997;SDS011;3539;47.982;12.238;2023-02-04T09:16:57;7.30;;;2.37;;
6997;SDS011;3539;47.982;12.238;2023-02-04T09:19:37;4.33;;;2.07;;
6997;SDS011;3539;47.982;12.238;2023-02-04T09:22:09;6.33;;;2.57;;
6997;SDS011;3539;47.982;12.238;2023-02-04T09:24:38;8.00;;;2.60;;
6997;SDS011;3539;47.982;12.238;2023-02-04T09:27:08;6.83;;;2.40;;
6997;SDS011;3539;47.982;12.238;2023-02-04T09:29:37;6.63;;;2.27;;
6997;SDS011;3539;47.982;12.238;2023-02-04T09:32:06;9.47;;;3.27;;
6997;SDS011;3539;47.982;12.238;2023-02-04T09:34:33;2.73;;;1.70;;
6997;SDS011;3539;47.982;12.238;2023-02-04T09:37:00;2.17;;;1.40;;
6997;SDS011;3539;47.982;12.238;2023-02-04T09:39:27;1.20;;;1.10;;
6997;SDS011;3539;47.982;12.238;2023-02-04T09:58:54;1.10;;;1.00;;
6997;SDS011;3539;47.982;12.238;2023-02-04T10:01:21;1.37;;;1.20;;
6997;SDS011;3539;47.982;12.238;2023-02-04T10:04:02;1.53;;;1.30;;
6997;SDS011;3539;47.982;12.238;2023-02-04T10:06:44;1.90;;;1.80;;
6997;SDS011;3539;47.982;12.238;2023-02-04T10:09:24;1.53;;;1.40;;
6997;SDS011;3539;47.982;12.238;2023-02-04T10:11:59;1.20;;;1.10;;
6997;SDS011;3539;47.982;12.238;2023-02-04T10:14:53;1.33;;;1.00;;
6997;SDS011;3539;47.982;12.238;2023-02-04T10:17:21;3.43;;;1.40;;
6997;SDS011;3539;47.982;12.238;2023-02-04T10:20:02;1.50;;;1.33;;
6997;SDS011;3539;47.982;12.238;2023-02-04T10:22:31;2.00;;;1.33;;
6997;SDS011;3539;47.982;12.238;2023-02-04T10:24:59;1.30;;;1.20;;
6997;SDS011;3539;47.982;12.238;2023-02-04T10:27:27;2.53;;;1.83;;
6997;SDS011;3539;47.982;12.238;2023-02-04T10:29:56;1.57;;;1.47;;
6997;SDS011;3539;47.982;12.238;2023-02-04T10:32:25;2.30;;;1.57;;
6997;SDS011;3539;47.982;12.238;2023-02-04T10:34:57;1.73;;;1.50;;
6997;SDS011;3539;47.982;12.238;2023-02-04T10:37:25;2.70;;;1.83;;
6997;SDS011;3539;47.982;12.238;2023-02-04T10:39:52;1.67;;;1.57;;
6997;SDS011;3539;47.982;12.238;2023-02-04T10:42:20;2.47;;;1.70;;
6997;SDS011;3539;47.982;12.238;2023-02-04T10:44:49;1.63;;;1.53;;
6997;SDS011;3539;47.982;12.238;2023-02-04T10:47:16;2.87;;;1.70;;
6997;SDS011;3539;47.982;12.238;2023-02-04T10:49:50;2.17;;;1.80;;
6997;SDS011;3539;47.982;12.238;2023-02-04T10:52:18;2.83;;;2.13;;
6997;SDS011;3539;47.982;12.238;2023-02-04T10:54:45;4.03;;;1.97;;
6997;SDS011;3539;47.982;12.238;2023-02-04T10:57:14;2.00;;;1.80;;
6997;SDS011;3539;47.982;12.238;2023-02-04T10:59:42;3.33;;;2.00;;
6997;SDS011;3539;47.982;12.238;2023-02-04T11:02:26;2.50;;;2.10;;
6997;SDS011;3539;47.982;12.238;2023-02-04T11:04:58;2.27;;;2.03;;
6997;SDS011;3539;47.982;12.238;2023-02-04T11:07:25;2.30;;;2.07;;
6997;SDS011;3539;47.982;12.238;2023-02-04T11:09:53;1.93;;;1.80;;
6997;SDS011;3539;47.982;12.238;2023-02-04T11:12:21;2.13;;;1.83;;
6997;SDS011;3539;47.982;12.238;2023-02-04T11:14:55;3.83;;;1.97;;
6997;SDS011;3539;47.982;12.238;2023-02-04T11:17:37;1.83;;;1.73;;
6997;SDS011;3539;47.982;12.238;2023-02-04T11:20:14;2.67;;;1.97;;
6997;SDS011;3539;47.982;12.238;2023-02-04T11:22:42;1.95;;;1.75;;
6997;SDS011;3539;47.982;12.238;2023-02-04T11:25:29;2.07;;;1.70;;
6997;SDS011;3539;47.982;12.238;2023-02-04T11:27:59;3.13;;;2.50;;
6997;SDS011;3539;47.982;12.238;2023-02-04T11:30:30;2.97;;;2.00;;
6997;SDS011;3539;47.982;12.238;2023-02-04T11:33:01;2.20;;;2.00;;
6997;SDS011;3539;47.982;12.238;2023-02-04T11:35:29;2.80;;;1.93;;
6997;SDS011;3539;47.982;12.238;2023-02-04T11:37:57;3.30;;;2.13;;
6997;SDS011;3539;47.982;12.238;2023-02-04T11:40:34;1.87;;;1.77;;
6997;SDS011;3539;47.982;12.238;2023-02-04T11:43:02;2.10;;;1.93;;
6997;SDS011;3539;47.982;12.238;2023-02-04T11:45:33;3.60;;;2.00;;
6997;SDS011;3539;47.982;12.238;2023-02-04T11:48:03;3.53;;;1.90;;
6997;SDS011;3539;47.982;12.238;2023-02-04T11:50:37;1.67;;;1.57;;
6997;SDS011;3539;47.982;12.238;2023-02-04T11:53:05;1.93;;;1.70;;
6997;SDS011;3539;47.982;12.238;2023-02-04T11:55:36;2.13;;;1.90;;
6997;SDS011;3539;47.982;12.238;2023-02-04T11:58:11;2.70;;;1.80;;
6997;SDS011;3539;47.982;12.238;2023-02-04T12:00:39;2.00;;;1.60;;
6997;SDS011;3539;47.982;12.238;2023-02-04T12:03:18;2.03;;;1.83;;
6997;SDS011;3539;47.982;12.238;2023-02-04T12:05:47;2.17;;;1.83;;
6997;SDS011;3539;47.982;12.238;2023-02-04T12:08:23;2.13;;;1.73;;
6997;SDS011;3539;47.982;12.238;2023-02-04T12:10:58;1.67;;;1.57;;
6997;SDS011;3539;47.982;12.238;2023-02-04T12:13:27;3.00;;;1.70;;
6997;SDS011;3539;47.982;12.238;2023-02-04T12:15:56;2.07;;;1.50;;
6997;SDS011;3539;47.982;12.238;2023-02-04T12:18:29;2.27;;;1.83;;
6997;SDS011;3539;47.982;12.238;2023-02-04T12:21:03;1.77;;;1.50;;
6997;SDS011;3539;47.982;12.238;2023-02-04T12:23:31;1.53;;;1.43;;
6997;SDS011;3539;47.982;12.238;2023-02-04T12:25:58;1.70;;;1.37;;
6997;SDS011;3539;47.982;12.238;2023-02-04T12:28:25;2.23;;;1.70;;
6997;SDS011;3539;47.982;12.238;2023-02-04T12:30:53;1.60;;;1.50;;
6997;SDS011;3539;47.982;12.238;2023-02-04T12:33:19;2.40;;;2.20;;
6997;SDS011;3539;47.982;12.238;2023-02-04T12:35:48;1.60;;;1.50;;
6997;SDS011;3539;47.982;12.238;2023-02-04T12:38:15;2.07;;;1.20;;
6997;SDS011;3539;47.982;12.238;2023-02-04T12:40:42;1.30;;;1.20;;
6997;SDS011;3539;47.982;12.238;2023-02-04T12:43:09;2.60;;;1.60;;
6997;SDS011;3539;47.982;12.238;2023-02-04T12:45:36;1.47;;;1.37;;
6997;SDS011;3539;47.982;12.238;2023-02-04T12:48:04;2.13;;;1.60;;
6997;SDS011;3539;47.982;12.238;2023-02-04T12:50:31;2.17;;;1.53;;
6997;SDS011;3539;47.982;12.238;2023-02-04T12:52:59;2.00;;;1.70;;
6997;SDS011;3539;47.982;12.238;2023-02-04T12:55:26;2.40;;;1.57;;
6997;SDS011;3539;47.982;12.238;2023-02-04T13:13:27;1.97;;;1.30;;
6997;SDS011;3539;47.982;12.238;2023-02-04T13:15:54;1.97;;;1.40;;
6997;SDS011;3539;47.982;12.238;2023-02-04T13:18:20;1.47;;;1.37;;
6997;SDS011;3539;47.982;12.238;2023-02-04T13:20:47;1.50;;;1.40;;
6997;SDS011;3539;47.982;12.238;2023-02-04T13:23:14;1.40;;;1.30;;
6997;SDS011;3539;47.982;12.238;2023-02-04T13:25:41;2.97;;;2.67;;
6997;SDS011;3539;47.982;12.238;2023-02-04T13:28:09;2.40;;;2.20;;
6997;SDS011;3539;47.982;12.238;2023-02-04T13:30:37;2.07;;;1.97;;
6997;SDS011;3539;47.982;12.238;2023-02-04T13:33:04;2.83;;;1.67;;
6997;SDS011;3539;47.982;12.238;2023-02-04T13:35:30;1.33;;;1.23;;
6997;SDS011;3539;47.982;12.238;2023-02-04T13:37:57;2.27;;;1.50;;
6997;SDS011;3539;47.982;12.238;2023-02-04T13:40:24;1.13;;;1.03;;
6997;SDS011;3539;47.982;12.238;2023-02-04T13:42:51;1.30;;;1.20;;
6997;SDS011;3539;47.982;12.238;2023-02-04T13:45:18;1.60;;;1.20;;
6997;SDS011;3539;47.982;12.238;2023-02-04T13:47:46;1.07;;;1.07;;
6997;SDS011;3539;47.982;12.238;2023-02-04T13:50:13;1.20;;;1.10;;
6997;SDS011;3539;47.982;12.238;2023-02-04T13:52:40;2.40;;;1.43;;
6997;SDS011;3539;47.982;12.238;2023-02-04T13:55:07;1.50;;;1.40;;
6997;SDS011;3539;47.982;12.238;2023-02-04T13:57:34;1.40;;;1.20;;
6997;SDS011;3539;47.982;12.238;2023-02-04T14:00:01;2.57;;;1.20;;
6997;SDS011;3539;47.982;12.238;2023-02-04T14:02:28;1.20;;;1.10;;
6997;SDS011;3539;47.982;12.238;2023-02-04T14:04:56;1.17;;;1.07;;
6997;SDS011;3539;47.982;12.238;2023-02-04T14:07:23;1.73;;;1.30;;
6997;SDS011;3539;47.982;12.238;2023-02-04T14:09:50;1.27;;;1.17;;
6997;SDS011;3539;47.982;12.238;2023-02-04T14:12:17;1.30;;;1.20;;
6997;SDS011;3539;47.982;12.238;2023-02-04T14:14:44;1.27;;;1.17;;
6997;SDS011;3539;47.982;12.238;2023-02-04T14:17:10;1.20;;;1.10;;
6997;SDS011;3539;47.982;12.238;2023-02-04T14:19:37;1.97;;;1.10;;
6997;SDS011;3539;47.982;12.238;2023-02-04T14:22:05;1.20;;;1.10;;
6997;SDS011;3539;47.982;12.238;2023-02-04T14:24:35;2.40;;;1.20;;
6997;SDS011;3539;47.982;12.238;2023-02-04T14:27:02;1.30;;;1.20;;
6997;SDS011;3539;47.982;12.238;2023-02-04T14:29:31;1.43;;;1.10;;
6997;SDS011;3539;47.982;12.238;2023-02-04T14:31:58;4.43;;;3.97;;
6997;SDS011;3539;47.982;12.238;2023-02-04T14:34:25;1.93;;;1.50;;
6997;SDS011;3539;47.982;12.238;2023-02-04T14:36:52;1.90;;;1.23;;
6997;SDS011;3539;47.982;12.238;2023-02-04T14:39:20;1.47;;;1.30;;
6997;SDS011;3539;47.982;12.238;2023-02-04T14:41:47;1.70;;;1.33;;
6997;SDS011;3539;47.982;12.238;2023-02-04T14:44:14;1.50;;;1.40;;
6997;SDS011;3539;47.982;12.238;2023-02-04T14:46:44;1.83;;;1.50;;
6997;SDS011;3539;47.982;12.238;2023-02-04T14:49:12;1.73;;;1.40;;
6997;SDS011;3539;47.982;12.238;2023-02-04T14:51:39;1.80;;;1.20;;
6997;SDS011;3539;47.982;12.238;2023-02-04T14:54:05;1.70;;;1.30;;
6997;SDS011;3539;47.982;12.238;2023-02-04T14:56:34;2.10;;;1.30;;
6997;SDS011;3539;47.982;12.238;2023-02-04T14:59:00;1.27;;;1.17;;
6997;SDS011;3539;47.982;12.238;2023-02-04T15:01:27;1.20;;;1.10;;
6997;SDS011;3539;47.982;12.238;2023-02-04T15:03:54;1.20;;;1.10;;
6997;SDS011;3539;47.982;12.238;2023-02-04T15:06:22;1.30;;;1.20;;
6997;SDS011;3539;47.982;12.238;2023-02-04T15:08:49;1.47;;;1.20;;
6997;SDS011;3539;47.982;12.238;2023-02-04T15:11:19;1.07;;;1.00;;
6997;SDS011;3539;47.982;12.238;2023-02-04T15:13:48;2.20;;;2.00;;
6997;SDS011;3539;47.982;12.238;2023-02-04T15:16:14;1.60;;;1.50;;
6997;SDS011;3539;47.982;12.238;2023-02-04T15:18:41;1.60;;;1.20;;
6997;SDS011;3539;47.982;12.238;2023-02-04T15:21:08;1.13;;;1.03;;
6997;SDS011;3539;47.982;12.238;2023-02-04T15:23:35;1.07;;;0.97;;
6997;SDS011;3539;47.982;12.238;2023-02-04T15:26:02;1.00;;;1.00;;
6997;SDS011;3539;47.982;12.238;2023-02-04T15:28:29;1.30;;;1.20;;
6997;SDS011;3539;47.982;12.238;2023-02-04T15:30:57;1.37;;;1.10;;
6997;SDS011;3539;47.982;12.238;2023-02-04T15:33:24;1.93;;;1.20;;
6997;SDS011;3539;47.982;12.238;2023-02-04T15:35:51;1.20;;;1.10;;
6997;SDS011;3539;47.982;12.238;2023-02-04T15:38:18;2.00;;;1.20;;
6997;SDS011;3539;47.982;12.238;2023-02-04T15:40:44;1.73;;;1.10;;
6997;SDS011;3539;47.982;12.238;2023-02-04T15:43:11;1.30;;;1.10;;
6997;SDS011;3539;47.982;12.238;2023-02-04T15:45:38;1.30;;;1.20;;
6997;SDS011;3539;47.982;12.238;2023-02-04T15:48:09;1.30;;;1.20;;
6997;SDS011;3539;47.982;12.238;2023-02-04T15:50:36;2.13;;;1.40;;